sensor_id;sensor_type;location;lat;lon;timestamp;pressure;altitude;pressure_sealevel;temperature;humidity
10652;BME280;5374;42.742;23.266;2022-08-19T00:00:46;95158.97;;;22.03;64.39
10652;BME280;5374;42.742;23.266;2022-08-19T00:03:33;95166.63;;;22.01;65.14
10652;BME280;5374;42.742;23.266;2022-08-19T00:06:21;95160.25;;;21.97;64.36
10652;BME280;5374;42.742;23.266;2022-08-19T00:09:11;95174.88;;;21.96;65.01
10652;BME280;5374;42.742;23.266;2022-08-19T00:12:00;95172.50;;;21.95;66.88
10652;BME280;5374;42.742;23.266;2022-08-19T00:14:47;95170.47;;;21.92;66.77
10652;BME280;5374;42.742;23.266;2022-08-19T00:17:34;95169.88;;;21.86;66.74
10652;BME280;5374;42.742;23.266;2022-08-19T00:20:23;95175.47;;;21.81;66.96
10652;BME280;5374;42.742;23.266;2022-08-19T00:23:12;95181.53;;;21.78;66.94
10652;BME280;5374;42.742;23.266;2022-08-19T00:26:00;95174.59;;;21.68;67.05
10652;BME280;5374;42.742;23.266;2022-08-19T00:28:47;95178.22;;;21.72;66.75
10652;BME280;5374;42.742;23.266;2022-08-19T00:31:34;95170.91;;;21.73;67.40
10652;BME280;5374;42.742;23.266;2022-08-19T00:34:22;95163.50;;;21.61;67.24
10652;BME280;5374;42.742;23.266;2022-08-19T00:37:10;95173.00;;;21.67;67.58
10652;BME280;5374;42.742;23.266;2022-08-19T00:39:58;95167.31;;;21.60;67.66
10652;BME280;5374;42.742;23.266;2022-08-19T00:42:46;95165.72;;;21.59;67.92
10652;BME280;5374;42.742;23.266;2022-08-19T00:45:33;95159.56;;;21.50;68.56
10652;BME280;5374;42.742;23.266;2022-08-19T00:48:21;95155.66;;;21.39;68.82
10652;BME280;5374;42.742;23.266;2022-08-19T00:51:09;95145.03;;;21.34;68.85
10652;BME280;5374;42.742;23.266;2022-08-19T00:53:57;95156.59;;;21.43;68.66
10652;BME280;5374;42.742;23.266;2022-08-19T00:56:48;95153.00;;;21.30;68.63
10652;BME280;5374;42.742;23.266;2022-08-19T00:59:38;95144.94;;;21.22;69.00
10652;BME280;5374;42.742;23.266;2022-08-19T01:02:27;95162.84;;;21.26;68.95
10652;BME280;5374;42.742;23.266;2022-08-19T01:05:18;95162.19;;;21.29;70.06
10652;BME280;5374;42.742;23.266;2022-08-19T01:08:07;95161.47;;;21.20;70.05
10652;BME280;5374;42.742;23.266;2022-08-19T01:10:56;95157.78;;;21.25;70.00
10652;BME280;5374;42.742;23.266;2022-08-19T01:13:46;95155.09;;;21.16;69.39
10652;BME280;5374;42.742;23.266;2022-08-19T01:16:34;95154.28;;;21.15;68.63
10652;BME280;5374;42.742;23.266;2022-08-19T01:19:27;95161.94;;;21.13;68.81
10652;BME280;5374;42.742;23.266;2022-08-19T01:22:25;95154.47;;;21.10;69.38
10652;BME280;5374;42.742;23.266;2022-08-19T01:25:15;95163.03;;;21.12;69.36
10652;BME280;5374;42.742;23.266;2022-08-19T01:28:03;95151.94;;;21.05;70.08
10652;BME280;5374;42.742;23.266;2022-08-19T01:30:50;95159.53;;;21.12;70.86
10652;BME280;5374;42.742;23.266;2022-08-19T01:33:37;95160.69;;;21.02;71.67
10652;BME280;5374;42.742;23.266;2022-08-19T01:36:28;95156.75;;;21.00;72.75
10652;BME280;5374;42.742;23.266;2022-08-19T01:39:20;95162.47;;;20.98;73.60
10652;BME280;5374;42.742;23.266;2022-08-19T01:42:08;95142.78;;;20.80;73.96
10652;BME280;5374;42.742;23.266;2022-08-19T01:44:56;95167.25;;;20.84;74.46
10652;BME280;5374;42.742;23.266;2022-08-19T01:47:44;95158.66;;;20.82;74.94
10652;BME280;5374;42.742;23.266;2022-08-19T01:50:32;95168.84;;;20.76;75.03
10652;BME280;5374;42.742;23.266;2022-08-19T01:53:20;95161.72;;;20.72;74.96
10652;BME280;5374;42.742;23.266;2022-08-19T01:56:08;95169.97;;;20.67;74.93
10652;BME280;5374;42.742;23.266;2022-08-19T01:58:58;95175.53;;;20.62;74.93
10652;BME280;5374;42.742;23.266;2022-08-19T02:01:46;95170.75;;;20.59;74.79
10652;BME280;5374;42.742;23.266;2022-08-19T02:04:34;95170.75;;;20.59;75.12
10652;BME280;5374;42.742;23.266;2022-08-19T02:07:23;95173.66;;;20.54;75.44
10652;BME280;5374;42.742;23.266;2022-08-19T02:10:13;95171.28;;;20.52;75.31
10652;BME280;5374;42.742;23.266;2022-08-19T02:13:02;95176.34;;;20.54;75.65
10652;BME280;5374;42.742;23.266;2022-08-19T02:15:50;95172.84;;;20.53;75.71
10652;BME280;5374;42.742;23.266;2022-08-19T02:18:37;95157.94;;;20.47;76.16
10652;BME280;5374;42.742;23.266;2022-08-19T02:21:24;95165.09;;;20.52;75.83
10652;BME280;5374;42.742;23.266;2022-08-19T02:24:11;95166.66;;;20.53;76.61
10652;BME280;5374;42.742;23.266;2022-08-19T02:26:58;95159.69;;;20.52;76.88
10652;BME280;5374;42.742;23.266;2022-08-19T02:29:48;95170.31;;;20.48;77.66
10652;BME280;5374;42.742;23.266;2022-08-19T02:32:35;95170.16;;;20.44;78.07
10652;BME280;5374;42.742;23.266;2022-08-19T02:35:22;95173.00;;;20.39;79.28
10652;BME280;5374;42.742;23.266;2022-08-19T02:38:10;95172.69;;;20.32;80.01
10652;BME280;5374;42.742;23.266;2022-08-19T02:41:18;95172.69;;;20.32;80.88
10652;BME280;5374;42.742;23.266;2022-08-19T02:44:07;95163.63;;;20.20;81.14
10652;BME280;5374;42.742;23.266;2022-08-19T02:46:55;95168.22;;;20.19;81.21
10652;BME280;5374;42.742;23.266;2022-08-19T02:49:43;95176.47;;;20.14;81.59
10652;BME280;5374;42.742;23.266;2022-08-19T02:52:31;95158.22;;;20.02;82.07
10652;BME280;5374;42.742;23.266;2022-08-19T02:55:18;95168.56;;;20.09;82.55
10652;BME280;5374;42.742;23.266;2022-08-19T02:58:06;95176.94;;;20.07;82.95
10652;BME280;5374;42.742;23.266;2022-08-19T03:00:55;95181.88;;;20.05;82.79
10652;BME280;5374;42.742;23.266;2022-08-19T03:03:44;95177.56;;;20.04;82.67
10652;BME280;5374;42.742;23.266;2022-08-19T03:06:34;95174.09;;;20.04;82.66
10652;BME280;5374;42.742;23.266;2022-08-19T03:09:22;95171.88;;;20.06;83.40
10652;BME280;5374;42.742;23.266;2022-08-19T03:12:10;95165.53;;;20.02;82.87
10652;BME280;5374;42.742;23.266;2022-08-19T03:14:57;95162.03;;;20.01;82.81
10652;BME280;5374;42.742;23.266;2022-08-19T03:17:44;95170.59;;;20.03;83.27
10652;BME280;5374;42.742;23.266;2022-08-19T03:20:33;95173.28;;;19.95;83.45
10652;BME280;5374;42.742;23.266;2022-08-19T03:23:20;95176.13;;;19.90;84.32
10652;BME280;5374;42.742;23.266;2022-08-19T03:26:08;95181.81;;;19.88;85.44
10652;BME280;5374;42.742;23.266;2022-08-19T03:28:55;95180.88;;;19.84;85.39
10652;BME280;5374;42.742;23.266;2022-08-19T03:31:43;95183.41;;;19.80;85.16
10652;BME280;5374;42.742;23.266;2022-08-19T03:34:32;95192.44;;;19.85;85.74
10652;BME280;5374;42.742;23.266;2022-08-19T03:37:21;95182.28;;;19.82;85.89
10652;BME280;5374;42.742;23.266;2022-08-19T03:40:09;95179.44;;;19.78;85.71
10652;BME280;5374;42.742;23.266;2022-08-19T03:42:57;95188.31;;;19.78;86.47
10652;BME280;5374;42.742;23.266;2022-08-19T03:45:44;95199.75;;;19.84;86.03
10652;BME280;5374;42.742;23.266;2022-08-19T03:48:31;95209.56;;;19.89;85.52
10652;BME280;5374;42.742;23.266;2022-08-19T03:51:22;95209.41;;;19.94;85.09
10652;BME280;5374;42.742;23.266;2022-08-19T03:54:13;95198.50;;;19.99;84.86
10652;BME280;5374;42.742;23.266;2022-08-19T03:57:00;95205.81;;;20.07;84.56
10652;BME280;5374;42.742;23.266;2022-08-19T03:59:48;95193.13;;;20.07;84.60
10652;BME280;5374;42.742;23.266;2022-08-19T04:02:35;95199.63;;;20.15;84.07
10652;BME280;5374;42.742;23.266;2022-08-19T04:05:22;95212.97;;;20.29;82.86
10652;BME280;5374;42.742;23.266;2022-08-19T04:08:09;95207.75;;;20.41;80.92
10652;BME280;5374;42.742;23.266;2022-08-19T04:10:58;95194.59;;;20.48;79.58
10652;BME280;5374;42.742;23.266;2022-08-19T04:13:45;95208.22;;;20.77;77.74
10652;BME280;5374;42.742;23.266;2022-08-19T04:16:32;95218.75;;;21.34;74.66
10652;BME280;5374;42.742;23.266;2022-08-19T04:19:20;95213.41;;;22.43;67.37
10652;BME280;5374;42.742;23.266;2022-08-19T04:22:07;95221.44;;;23.72;61.87
10652;BME280;5374;42.742;23.266;2022-08-19T04:24:54;95224.28;;;24.92;56.88
10652;BME280;5374;42.742;23.266;2022-08-19T04:27:43;95206.03;;;25.96;52.85
10652;BME280;5374;42.742;23.266;2022-08-19T04:30:37;95229.53;;;27.09;48.94
10652;BME280;5374;42.742;23.266;2022-08-19T04:33:25;95230.75;;;27.99;45.72
10652;BME280;5374;42.742;23.266;2022-08-19T04:36:19;95229.09;;;28.74;43.46
10652;BME280;5374;42.742;23.266;2022-08-19T04:39:09;95237.44;;;29.88;41.53
10652;BME280;5374;42.742;23.266;2022-08-19T04:41:56;95241.66;;;30.85;39.13
10652;BME280;5374;42.742;23.266;2022-08-19T04:45:02;95237.69;;;31.87;36.61
10652;BME280;5374;42.742;23.266;2022-08-19T04:47:54;95250.22;;;32.77;34.84
10652;BME280;5374;42.742;23.266;2022-08-19T04:50:43;95240.00;;;33.68;33.43
10652;BME280;5374;42.742;23.266;2022-08-19T04:53:31;95235.25;;;34.31;32.21
10652;BME280;5374;42.742;23.266;2022-08-19T04:56:20;95240.81;;;35.03;30.75
10652;BME280;5374;42.742;23.266;2022-08-19T04:59:08;95238.44;;;35.39;30.49
10652;BME280;5374;42.742;23.266;2022-08-19T05:01:57;95247.50;;;36.20;29.17
10652;BME280;5374;42.742;23.266;2022-08-19T05:04:44;95236.84;;;37.08;27.99
10652;BME280;5374;42.742;23.266;2022-08-19T05:07:32;95245.97;;;37.84;26.73
10652;BME280;5374;42.742;23.266;2022-08-19T05:10:19;95244.19;;;38.59;26.00
10652;BME280;5374;42.742;23.266;2022-08-19T05:13:06;95247.28;;;38.77;25.63
10652;BME280;5374;42.742;23.266;2022-08-19T05:15:55;95240.13;;;39.63;24.78
10652;BME280;5374;42.742;23.266;2022-08-19T05:18:44;95257.81;;;40.45;23.64
10652;BME280;5374;42.742;23.266;2022-08-19T05:21:49;95262.53;;;41.17;23.02
10652;BME280;5374;42.742;23.266;2022-08-19T05:24:54;95256.94;;;41.61;22.21
10652;BME280;5374;42.742;23.266;2022-08-19T05:27:41;95255.97;;;42.17;21.67
10652;BME280;5374;42.742;23.266;2022-08-19T05:30:29;95257.97;;;42.75;21.50
10652;BME280;5374;42.742;23.266;2022-08-19T05:33:16;95248.19;;;43.52;20.68
10652;BME280;5374;42.742;23.266;2022-08-19T05:36:05;95249.06;;;44.19;20.71
10652;BME280;5374;42.742;23.266;2022-08-19T05:38:53;95254.16;;;45.01;19.60
10652;BME280;5374;42.742;23.266;2022-08-19T05:41:41;95243.09;;;45.60;18.95
10652;BME280;5374;42.742;23.266;2022-08-19T05:44:31;95251.53;;;46.10;18.34
10652;BME280;5374;42.742;23.266;2022-08-19T05:47:18;95239.69;;;46.55;18.10
10652;BME280;5374;42.742;23.266;2022-08-19T05:50:07;95245.31;;;46.70;17.74
10652;BME280;5374;42.742;23.266;2022-08-19T05:52:55;95254.88;;;46.43;17.72
10652;BME280;5374;42.742;23.266;2022-08-19T05:55:42;95247.75;;;46.83;17.59
10652;BME280;5374;42.742;23.266;2022-08-19T05:58:29;95245.78;;;47.09;17.95
10652;BME280;5374;42.742;23.266;2022-08-19T06:01:18;95242.81;;;46.78;17.55
10652;BME280;5374;42.742;23.266;2022-08-19T06:04:06;95240.16;;;45.84;18.37
10652;BME280;5374;42.742;23.266;2022-08-19T06:06:53;95249.31;;;44.87;19.46
10652;BME280;5374;42.742;23.266;2022-08-19T06:09:43;95238.31;;;43.84;20.05
10652;BME280;5374;42.742;23.266;2022-08-19T06:12:31;95241.56;;;42.86;20.96
10652;BME280;5374;42.742;23.266;2022-08-19T06:15:20;95237.63;;;42.07;22.12
10652;BME280;5374;42.742;23.266;2022-08-19T06:18:14;95248.69;;;41.36;22.46
10652;BME280;5374;42.742;23.266;2022-08-19T06:21:02;95250.13;;;40.49;23.10
10652;BME280;5374;42.742;23.266;2022-08-19T06:23:50;95246.56;;;39.85;24.29
10652;BME280;5374;42.742;23.266;2022-08-19T06:26:40;95243.53;;;39.13;24.27
10652;BME280;5374;42.742;23.266;2022-08-19T06:29:28;95241.22;;;38.50;25.59
10652;BME280;5374;42.742;23.266;2022-08-19T06:32:17;95242.41;;;37.84;26.50
10652;BME280;5374;42.742;23.266;2022-08-19T06:35:06;95238.25;;;37.56;26.13
10652;BME280;5374;42.742;23.266;2022-08-19T06:37:53;95242.69;;;37.34;26.23
10652;BME280;5374;42.742;23.266;2022-08-19T06:40:40;95253.47;;;37.08;26.80
10652;BME280;5374;42.742;23.266;2022-08-19T06:43:28;95240.94;;;37.04;27.01
10652;BME280;5374;42.742;23.266;2022-08-19T06:46:17;95242.88;;;36.83;27.12
10652;BME280;5374;42.742;23.266;2022-08-19T06:49:06;95240.28;;;36.53;27.74
10652;BME280;5374;42.742;23.266;2022-08-19T06:52:00;95237.28;;;36.17;28.38
10652;BME280;5374;42.742;23.266;2022-08-19T06:54:47;95225.59;;;35.82;28.46
10652;BME280;5374;42.742;23.266;2022-08-19T06:57:34;95239.06;;;35.80;29.04
10652;BME280;5374;42.742;23.266;2022-08-19T07:00:23;95237.84;;;35.81;29.67
10652;BME280;5374;42.742;23.266;2022-08-19T07:03:10;95243.50;;;35.44;29.56
10652;BME280;5374;42.742;23.266;2022-08-19T07:05:57;95231.41;;;35.00;30.69
10652;BME280;5374;42.742;23.266;2022-08-19T07:08:47;95242.75;;;34.68;30.77
10652;BME280;5374;42.742;23.266;2022-08-19T07:11:36;95247.88;;;35.07;30.28
10652;BME280;5374;42.742;23.266;2022-08-19T07:14:25;95239.44;;;34.87;30.87
10652;BME280;5374;42.742;23.266;2022-08-19T07:17:14;95245.97;;;35.35;29.52
10652;BME280;5374;42.742;23.266;2022-08-19T07:20:01;95229.22;;;35.49;30.29
10652;BME280;5374;42.742;23.266;2022-08-19T07:22:48;95245.41;;;35.77;29.68
10652;BME280;5374;42.742;23.266;2022-08-19T07:25:36;95242.75;;;35.97;29.00
10652;BME280;5374;42.742;23.266;2022-08-19T07:28:23;95241.31;;;35.89;29.83
10652;BME280;5374;42.742;23.266;2022-08-19T07:31:11;95236.78;;;35.98;29.13
10652;BME280;5374;42.742;23.266;2022-08-19T07:34:00;95200.22;;;35.91;29.17
10652;BME280;5374;42.742;23.266;2022-08-19T07:36:48;95232.47;;;36.21;29.43
10652;BME280;5374;42.742;23.266;2022-08-19T07:39:37;95224.66;;;36.16;28.46
10652;BME280;5374;42.742;23.266;2022-08-19T07:42:24;95231.41;;;35.91;30.32
10652;BME280;5374;42.742;23.266;2022-08-19T07:45:12;95233.59;;;36.27;29.36
10652;BME280;5374;42.742;23.266;2022-08-19T07:47:59;95216.75;;;36.41;29.70
10652;BME280;5374;42.742;23.266;2022-08-19T07:50:47;95230.63;;;36.61;29.35
10652;BME280;5374;42.742;23.266;2022-08-19T07:53:39;95224.59;;;36.66;28.55
10652;BME280;5374;42.742;23.266;2022-08-19T07:56:26;95227.78;;;36.64;28.57
10652;BME280;5374;42.742;23.266;2022-08-19T07:59:13;95226.38;;;36.80;28.28
10652;BME280;5374;42.742;23.266;2022-08-19T08:02:04;95228.63;;;36.85;29.29
10652;BME280;5374;42.742;23.266;2022-08-19T08:04:51;95233.53;;;36.97;28.89
10652;BME280;5374;42.742;23.266;2022-08-19T08:07:57;95228.13;;;37.10;28.20
10652;BME280;5374;42.742;23.266;2022-08-19T08:11:02;95213.25;;;37.04;28.87
10652;BME280;5374;42.742;23.266;2022-08-19T08:13:49;95224.81;;;36.98;27.92
10652;BME280;5374;42.742;23.266;2022-08-19T08:16:37;95215.28;;;36.80;28.43
10652;BME280;5374;42.742;23.266;2022-08-19T08:19:26;95213.63;;;36.39;28.60
10652;BME280;5374;42.742;23.266;2022-08-19T08:22:16;95205.81;;;36.57;29.45
10652;BME280;5374;42.742;23.266;2022-08-19T08:25:20;95213.59;;;36.62;29.59
10652;BME280;5374;42.742;23.266;2022-08-19T08:28:08;95215.00;;;36.51;28.72
10652;BME280;5374;42.742;23.266;2022-08-19T08:30:56;95206.50;;;36.61;29.28
10652;BME280;5374;42.742;23.266;2022-08-19T08:33:43;95204.09;;;36.63;28.80
10652;BME280;5374;42.742;23.266;2022-08-19T08:36:30;95202.13;;;36.84;29.45
10652;BME280;5374;42.742;23.266;2022-08-19T08:39:20;95192.91;;;36.90;28.38
10652;BME280;5374;42.742;23.266;2022-08-19T08:42:14;95206.63;;;36.78;28.73
10652;BME280;5374;42.742;23.266;2022-08-19T08:45:10;95206.47;;;36.85;28.23
10652;BME280;5374;42.742;23.266;2022-08-19T08:48:07;95199.72;;;36.86;28.28
10652;BME280;5374;42.742;23.266;2022-08-19T08:50:58;95185.09;;;36.85;28.76
10652;BME280;5374;42.742;23.266;2022-08-19T08:53:49;95185.19;;;37.02;29.28
10652;BME280;5374;42.742;23.266;2022-08-19T08:56:37;95187.53;;;37.03;29.42
10652;BME280;5374;42.742;23.266;2022-08-19T08:59:29;95174.47;;;37.04;28.93
10652;BME280;5374;42.742;23.266;2022-08-19T09:02:18;95185.44;;;37.07;27.82
10652;BME280;5374;42.742;23.266;2022-08-19T09:05:06;95180.97;;;37.13;27.53
10652;BME280;5374;42.742;23.266;2022-08-19T09:07:59;95178.09;;;37.20;27.98
10652;BME280;5374;42.742;23.266;2022-08-19T09:10:51;95165.03;;;37.21;27.04
10652;BME280;5374;42.742;23.266;2022-08-19T09:13:44;95147.97;;;37.22;27.74
10652;BME280;5374;42.742;23.266;2022-08-19T09:16:37;95156.81;;;36.78;27.55
10652;BME280;5374;42.742;23.266;2022-08-19T09:19:26;95160.34;;;36.98;27.87
10652;BME280;5374;42.742;23.266;2022-08-19T09:22:14;95162.38;;;37.14;26.70
10652;BME280;5374;42.742;23.266;2022-08-19T09:25:02;95159.34;;;36.88;26.73
10652;BME280;5374;42.742;23.266;2022-08-19T09:27:51;95166.00;;;37.11;26.50
10652;BME280;5374;42.742;23.266;2022-08-19T09:30:41;95163.41;;;37.04;25.94
10652;BME280;5374;42.742;23.266;2022-08-19T09:33:30;95156.00;;;36.97;25.80
10652;BME280;5374;42.742;23.266;2022-08-19T09:36:20;95156.84;;;36.94;25.54
10652;BME280;5374;42.742;23.266;2022-08-19T09:39:10;95146.28;;;36.89;24.92
10652;BME280;5374;42.742;23.266;2022-08-19T09:41:57;95143.06;;;37.10;25.16
10652;BME280;5374;42.742;23.266;2022-08-19T09:44:44;95142.97;;;37.14;24.48
10652;BME280;5374;42.742;23.266;2022-08-19T09:47:31;95140.13;;;37.17;24.66
10652;BME280;5374;42.742;23.266;2022-08-19T09:50:23;95145.16;;;37.42;24.71
10652;BME280;5374;42.742;23.266;2022-08-19T09:53:11;95143.97;;;36.44;23.70
10652;BME280;5374;42.742;23.266;2022-08-19T09:55:58;95145.66;;;35.68;24.84
10652;BME280;5374;42.742;23.266;2022-08-19T09:58:45;95150.50;;;36.34;24.92
10652;BME280;5374;42.742;23.266;2022-08-19T10:01:33;95125.47;;;36.61;24.74
10652;BME280;5374;42.742;23.266;2022-08-19T10:04:21;95126.03;;;36.92;25.16
10652;BME280;5374;42.742;23.266;2022-08-19T10:07:09;95120.72;;;37.01;25.20
10652;BME280;5374;42.742;23.266;2022-08-19T10:09:57;95119.31;;;36.93;24.63
10652;BME280;5374;42.742;23.266;2022-08-19T10:12:44;95114.63;;;36.90;23.49
10652;BME280;5374;42.742;23.266;2022-08-19T10:15:34;95112.34;;;36.85;24.64
10652;BME280;5374;42.742;23.266;2022-08-19T10:18:22;95115.69;;;36.96;24.59
10652;BME280;5374;42.742;23.266;2022-08-19T10:21:13;95124.53;;;37.07;23.70
10652;BME280;5374;42.742;23.266;2022-08-19T10:24:05;95108.69;;;37.27;24.77
10652;BME280;5374;42.742;23.266;2022-08-19T10:26:52;95105.00;;;37.50;24.90
10652;BME280;5374;42.742;23.266;2022-08-19T10:29:39;95100.91;;;37.55;24.96
10652;BME280;5374;42.742;23.266;2022-08-19T10:32:27;95103.84;;;37.48;23.69
10652;BME280;5374;42.742;23.266;2022-08-19T10:35:16;95093.38;;;37.39;23.85
10652;BME280;5374;42.742;23.266;2022-08-19T10:38:03;95098.22;;;37.51;24.11
10652;BME280;5374;42.742;23.266;2022-08-19T10:40:51;95091.84;;;37.71;24.89
10652;BME280;5374;42.742;23.266;2022-08-19T10:43:40;95085.75;;;37.76;24.71
10652;BME280;5374;42.742;23.266;2022-08-19T10:46:28;95093.53;;;37.64;25.02
10652;BME280;5374;42.742;23.266;2022-08-19T10:49:18;95084.97;;;37.75;24.87
10652;BME280;5374;42.742;23.266;2022-08-19T10:52:06;95089.38;;;37.56;23.99
10652;BME280;5374;42.742;23.266;2022-08-19T10:55:11;95085.31;;;37.61;23.43
10652;BME280;5374;42.742;23.266;2022-08-19T10:58:19;95088.88;;;37.61;24.42
10652;BME280;5374;42.742;23.266;2022-08-19T11:01:07;95077.09;;;37.74;24.30
10652;BME280;5374;42.742;23.266;2022-08-19T11:03:55;95079.53;;;37.72;23.99
10652;BME280;5374;42.742;23.266;2022-08-19T11:06:43;95082.03;;;37.82;23.92
10652;BME280;5374;42.742;23.266;2022-08-19T11:09:37;95080.81;;;37.83;24.57
10652;BME280;5374;42.742;23.266;2022-08-19T11:12:25;95076.84;;;37.84;25.11
10652;BME280;5374;42.742;23.266;2022-08-19T11:15:15;95070.41;;;37.87;24.07
10652;BME280;5374;42.742;23.266;2022-08-19T11:18:02;95069.63;;;37.87;24.74
10652;BME280;5374;42.742;23.266;2022-08-19T11:20:51;95074.22;;;37.93;23.32
10652;BME280;5374;42.742;23.266;2022-08-19T11:23:38;95062.09;;;37.87;23.78
10652;BME280;5374;42.742;23.266;2022-08-19T11:26:26;95026.06;;;37.55;23.53
10652;BME280;5374;42.742;23.266;2022-08-19T11:29:14;95060.47;;;37.41;24.66
10652;BME280;5374;42.742;23.266;2022-08-19T11:32:06;95054.72;;;37.32;24.50
10652;BME280;5374;42.742;23.266;2022-08-19T11:34:54;95043.19;;;37.17;24.36
10652;BME280;5374;42.742;23.266;2022-08-19T11:37:41;95051.03;;;37.22;24.17
10652;BME280;5374;42.742;23.266;2022-08-19T11:40:29;95047.19;;;37.33;23.92
10652;BME280;5374;42.742;23.266;2022-08-19T11:43:16;95041.22;;;37.18;23.64
10652;BME280;5374;42.742;23.266;2022-08-19T11:46:04;95035.97;;;37.23;23.98
10652;BME280;5374;42.742;23.266;2022-08-19T11:48:54;95038.50;;;37.14;24.62
10652;BME280;5374;42.742;23.266;2022-08-19T11:51:42;95040.28;;;37.24;24.13
10652;BME280;5374;42.742;23.266;2022-08-19T11:54:29;95025.19;;;37.09;23.95
10652;BME280;5374;42.742;23.266;2022-08-19T11:57:17;95030.91;;;37.18;24.03
10652;BME280;5374;42.742;23.266;2022-08-19T12:00:06;95031.06;;;36.95;24.51
10652;BME280;5374;42.742;23.266;2022-08-19T12:02:54;95014.97;;;37.06;25.27
10652;BME280;5374;42.742;23.266;2022-08-19T12:05:43;95016.28;;;37.34;25.19
10652;BME280;5374;42.742;23.266;2022-08-19T12:08:30;95004.75;;;37.52;24.69
10652;BME280;5374;42.742;23.266;2022-08-19T12:11:17;95005.38;;;37.59;24.12
10652;BME280;5374;42.742;23.266;2022-08-19T12:14:05;95013.78;;;37.56;24.23
10652;BME280;5374;42.742;23.266;2022-08-19T12:16:52;95000.53;;;37.63;24.47
10652;BME280;5374;42.742;23.266;2022-08-19T12:19:39;94995.59;;;37.55;24.46
10652;BME280;5374;42.742;23.266;2022-08-19T12:22:29;94993.41;;;37.62;24.18
10652;BME280;5374;42.742;23.266;2022-08-19T12:25:18;94995.44;;;37.46;24.73
10652;BME280;5374;42.742;23.266;2022-08-19T12:28:06;94982.09;;;37.41;24.63
10652;BME280;5374;42.742;23.266;2022-08-19T12:30:53;94994.81;;;37.54;24.36
10652;BME280;5374;42.742;23.266;2022-08-19T12:33:41;94985.38;;;37.52;24.81
10652;BME280;5374;42.742;23.266;2022-08-19T12:36:28;94978.72;;;37.66;24.98
10652;BME280;5374;42.742;23.266;2022-08-19T12:39:17;94987.06;;;37.78;24.18
10652;BME280;5374;42.742;23.266;2022-08-19T12:42:05;94988.94;;;37.69;24.24
10652;BME280;5374;42.742;23.266;2022-08-19T12:44:54;94984.75;;;37.60;23.35
10652;BME280;5374;42.742;23.266;2022-08-19T12:47:41;94978.03;;;37.45;24.04
10652;BME280;5374;42.742;23.266;2022-08-19T12:50:28;94969.13;;;37.21;24.21
10652;BME280;5374;42.742;23.266;2022-08-19T12:53:16;94963.13;;;37.07;24.57
10652;BME280;5374;42.742;23.266;2022-08-19T12:56:04;94965.44;;;36.40;24.87
10652;BME280;5374;42.742;23.266;2022-08-19T12:58:52;94964.72;;;36.55;24.83
10652;BME280;5374;42.742;23.266;2022-08-19T13:01:39;94954.94;;;36.67;24.43
10652;BME280;5374;42.742;23.266;2022-08-19T13:04:27;94962.69;;;36.76;24.32
10652;BME280;5374;42.742;23.266;2022-08-19T13:07:14;94955.59;;;36.75;24.51
10652;BME280;5374;42.742;23.266;2022-08-19T13:10:02;94963.03;;;36.78;24.46
10652;BME280;5374;42.742;23.266;2022-08-19T13:12:51;94964.88;;;36.64;24.42
10652;BME280;5374;42.742;23.266;2022-08-19T13:15:41;94951.47;;;36.63;24.69
10652;BME280;5374;42.742;23.266;2022-08-19T13:18:30;94953.44;;;36.82;24.98
10652;BME280;5374;42.742;23.266;2022-08-19T13:21:19;94941.31;;;36.92;23.85
10652;BME280;5374;42.742;23.266;2022-08-19T13:24:06;94941.59;;;36.82;25.23
10652;BME280;5374;42.742;23.266;2022-08-19T13:26:53;94940.19;;;37.06;24.26
10652;BME280;5374;42.742;23.266;2022-08-19T13:29:42;94927.22;;;37.03;24.73
10652;BME280;5374;42.742;23.266;2022-08-19T13:32:46;94925.50;;;36.93;24.29
10652;BME280;5374;42.742;23.266;2022-08-19T13:35:56;94919.28;;;37.05;24.46
10652;BME280;5374;42.742;23.266;2022-08-19T13:38:45;94922.09;;;36.85;24.31
10652;BME280;5374;42.742;23.266;2022-08-19T13:41:32;94930.97;;;36.60;25.21
10652;BME280;5374;42.742;23.266;2022-08-19T13:44:20;94924.81;;;36.37;25.07
10652;BME280;5374;42.742;23.266;2022-08-19T13:47:08;94929.59;;;36.52;24.64
10652;BME280;5374;42.742;23.266;2022-08-19T13:49:58;94925.19;;;36.55;24.91
10652;BME280;5374;42.742;23.266;2022-08-19T13:52:46;94927.47;;;36.40;24.42
10652;BME280;5374;42.742;23.266;2022-08-19T13:55:34;94922.66;;;36.44;24.69
10652;BME280;5374;42.742;23.266;2022-08-19T13:58:22;94917.47;;;36.46;24.92
10652;BME280;5374;42.742;23.266;2022-08-19T14:01:10;94918.69;;;36.45;24.47
10652;BME280;5374;42.742;23.266;2022-08-19T14:03:58;94915.81;;;36.33;24.96
10652;BME280;5374;42.742;23.266;2022-08-19T14:06:45;94923.16;;;36.19;25.24
10652;BME280;5374;42.742;23.266;2022-08-19T14:09:33;94913.31;;;36.18;24.80
10652;BME280;5374;42.742;23.266;2022-08-19T14:12:20;94912.50;;;36.02;25.29
10652;BME280;5374;42.742;23.266;2022-08-19T14:15:09;94903.69;;;36.07;24.51
10652;BME280;5374;42.742;23.266;2022-08-19T14:17:57;94915.69;;;36.00;25.35
10652;BME280;5374;42.742;23.266;2022-08-19T14:20:46;94909.75;;;35.82;25.14
10652;BME280;5374;42.742;23.266;2022-08-19T14:23:34;94914.22;;;35.52;25.51
10652;BME280;5374;42.742;23.266;2022-08-19T14:26:22;94905.69;;;35.67;25.81
10652;BME280;5374;42.742;23.266;2022-08-19T14:29:09;94904.22;;;35.82;25.13
10652;BME280;5374;42.742;23.266;2022-08-19T14:31:56;94903.00;;;35.83;25.03
10652;BME280;5374;42.742;23.266;2022-08-19T14:34:45;94902.22;;;35.62;25.55
10652;BME280;5374;42.742;23.266;2022-08-19T14:37:35;94899.81;;;35.64;25.48
10652;BME280;5374;42.742;23.266;2022-08-19T14:40:25;94891.28;;;35.55;25.35
10652;BME280;5374;42.742;23.266;2022-08-19T14:43:13;94901.34;;;35.66;25.31
10652;BME280;5374;42.742;23.266;2022-08-19T14:46:00;94903.69;;;35.67;25.26
10652;BME280;5374;42.742;23.266;2022-08-19T14:48:48;94889.31;;;35.56;25.65
10652;BME280;5374;42.742;23.266;2022-08-19T14:51:35;94895.13;;;35.61;25.45
10652;BME280;5374;42.742;23.266;2022-08-19T14:54:24;94895.00;;;35.69;25.29